sensor_id;sensor_type;location;lat;lon;timestamp;P1;durP1;ratioP1;P2;durP2;ratioP2
16314;SDS011;8266;52.150;4.768;2023-08-06T00:01:04;4.25;;;3.25;;
16314;SDS011;8266;52.150;4.768;2023-08-06T00:03:31;3.80;;;3.50;;
16314;SDS011;8266;52.150;4.768;2023-08-06T00:05:58;3.55;;;3.25;;
16314;SDS011;8266;52.150;4.768;2023-08-06T00:08:25;3.65;;;3.35;;
16314;SDS011;8266;52.150;4.768;2023-08-06T00:10:54;3.53;;;2.85;;
16314;SDS011;8266;52.150;4.768;2023-08-06T00:13:21;3.67;;;3.38;;
16314;SDS011;8266;52.150;4.768;2023-08-06T00:15:47;4.53;;;3.22;;
16314;SDS011;8266;52.150;4.768;2023-08-06T00:18:14;5.35;;;3.47;;
16314;SDS011;8266;52.150;4.768;2023-08-06T00:20:41;3.72;;;3.30;;
16314;SDS011;8266;52.150;4.768;2023-08-06T00:23:08;6.43;;;4.00;;
16314;SDS011;8266;52.150;4.768;2023-08-06T00:25:36;3.67;;;3.38;;
16314;SDS011;8266;52.150;4.768;2023-08-06T00:28:04;5.45;;;3.30;;
16314;SDS011;8266;52.150;4.768;2023-08-06T00:30:31;3.92;;;3.50;;
16314;SDS011;8266;52.150;4.768;2023-08-06T00:32:58;3.72;;;3.42;;
16314;SDS011;8266;52.150;4.768;2023-08-06T00:35:25;3.45;;;3.15;;
16314;SDS011;8266;52.150;4.768;2023-08-06T00:37:52;4.43;;;3.92;;
16314;SDS011;8266;52.150;4.768;2023-08-06T00:40:20;3.53;;;3.30;;
16314;SDS011;8266;52.150;4.768;2023-08-06T00:42:47;3.95;;;3.65;;
16314;SDS011;8266;52.150;4.768;2023-08-06T00:45:16;3.78;;;3.38;;
16314;SDS011;8266;52.150;4.768;2023-08-06T00:47:43;4.10;;;3.80;;
16314;SDS011;8266;52.150;4.768;2023-08-06T00:50:11;3.90;;;3.60;;
16314;SDS011;8266;52.150;4.768;2023-08-06T00:52:38;4.50;;;4.10;;
16314;SDS011;8266;52.150;4.768;2023-08-06T00:55:05;4.55;;;4.15;;
16314;SDS011;8266;52.150;4.768;2023-08-06T00:57:33;4.25;;;3.92;;
16314;SDS011;8266;52.150;4.768;2023-08-06T01:00:00;4.88;;;4.32;;
16314;SDS011;8266;52.150;4.768;2023-08-06T01:02:28;5.45;;;4.93;;
16314;SDS011;8266;52.150;4.768;2023-08-06T01:04:56;4.38;;;3.92;;
16314;SDS011;8266;52.150;4.768;2023-08-06T01:07:27;4.80;;;3.97;;
16314;SDS011;8266;52.150;4.768;2023-08-06T01:10:10;7.22;;;3.95;;
16314;SDS011;8266;52.150;4.768;2023-08-06T01:12:48;4.00;;;3.58;;
16314;SDS011;8266;52.150;4.768;2023-08-06T01:15:22;5.50;;;4.00;;
16314;SDS011;8266;52.150;4.768;2023-08-06T01:17:55;4.78;;;4.03;;
16314;SDS011;8266;52.150;4.768;2023-08-06T01:20:28;3.85;;;3.55;;
16314;SDS011;8266;52.150;4.768;2023-08-06T01:22:55;4.55;;;4.15;;
16314;SDS011;8266;52.150;4.768;2023-08-06T01:25:22;5.15;;;3.90;;
16314;SDS011;8266;52.150;4.768;2023-08-06T01:27:56;4.20;;;3.90;;
16314;SDS011;8266;52.150;4.768;2023-08-06T01:30:31;4.60;;;4.20;;
16314;SDS011;8266;52.150;4.768;2023-08-06T01:33:02;5.40;;;3.92;;
16314;SDS011;8266;52.150;4.768;2023-08-06T01:35:32;4.78;;;4.03;;
16314;SDS011;8266;52.150;4.768;2023-08-06T01:38:01;4.53;;;4.13;;
16314;SDS011;8266;52.150;4.768;2023-08-06T01:40:29;4.85;;;4.35;;
16314;SDS011;8266;52.150;4.768;2023-08-06T01:42:57;4.95;;;4.32;;
16314;SDS011;8266;52.150;4.768;2023-08-06T01:45:24;4.05;;;3.75;;
16314;SDS011;8266;52.150;4.768;2023-08-06T01:47:51;4.47;;;4.07;;
16314;SDS011;8266;52.150;4.768;2023-08-06T01:50:18;4.80;;;4.40;;
16314;SDS011;8266;52.150;4.768;2023-08-06T01:52:46;5.05;;;3.78;;
16314;SDS011;8266;52.150;4.768;2023-08-06T01:55:13;4.25;;;3.90;;
16314;SDS011;8266;52.150;4.768;2023-08-06T01:57:41;4.85;;;4.35;;
16314;SDS011;8266;52.150;4.768;2023-08-06T02:00:08;3.95;;;3.47;;
16314;SDS011;8266;52.150;4.768;2023-08-06T02:02:35;4.85;;;4.13;;
16314;SDS011;8266;52.150;4.768;2023-08-06T02:05:02;4.75;;;4.35;;
16314;SDS011;8266;52.150;4.768;2023-08-06T02:07:30;5.10;;;4.60;;
16314;SDS011;8266;52.150;4.768;2023-08-06T02:09:58;4.43;;;4.03;;
16314;SDS011;8266;52.150;4.768;2023-08-06T02:12:25;4.82;;;4.43;;
16314;SDS011;8266;52.150;4.768;2023-08-06T02:14:52;4.15;;;3.85;;
16314;SDS011;8266;52.150;4.768;2023-08-06T02:17:19;4.82;;;4.25;;
16314;SDS011;8266;52.150;4.768;2023-08-06T02:19:46;4.35;;;3.95;;
16314;SDS011;8266;52.150;4.768;2023-08-06T02:22:13;4.40;;;4.00;;
16314;SDS011;8266;52.150;4.768;2023-08-06T02:24:40;4.72;;;4.18;;
16314;SDS011;8266;52.150;4.768;2023-08-06T02:27:08;4.75;;;4.35;;
16314;SDS011;8266;52.150;4.768;2023-08-06T02:29:35;5.05;;;4.55;;
16314;SDS011;8266;52.150;4.768;2023-08-06T02:32:02;5.60;;;5.10;;
16314;SDS011;8266;52.150;4.768;2023-08-06T02:34:30;4.95;;;4.55;;
16314;SDS011;8266;52.150;4.768;2023-08-06T02:36:57;5.07;;;4.68;;
16314;SDS011;8266;52.150;4.768;2023-08-06T02:39:24;5.18;;;4.78;;
16314;SDS011;8266;52.150;4.768;2023-08-06T02:41:51;4.60;;;4.20;;
16314;SDS011;8266;52.150;4.768;2023-08-06T02:44:20;7.13;;;5.28;;
16314;SDS011;8266;52.150;4.768;2023-08-06T02:46:46;5.18;;;4.68;;
16314;SDS011;8266;52.150;4.768;2023-08-06T02:49:13;5.88;;;5.28;;
16314;SDS011;8266;52.150;4.768;2023-08-06T02:51:40;5.82;;;5.20;;
16314;SDS011;8266;52.150;4.768;2023-08-06T02:54:07;6.63;;;5.70;;
16314;SDS011;8266;52.150;4.768;2023-08-06T02:56:34;6.07;;;5.57;;
16314;SDS011;8266;52.150;4.768;2023-08-06T02:59:01;5.63;;;5.13;;
16314;SDS011;8266;52.150;4.768;2023-08-06T03:01:30;5.80;;;5.25;;
16314;SDS011;8266;52.150;4.768;2023-08-06T03:03:56;7.45;;;6.75;;
16314;SDS011;8266;52.150;4.768;2023-08-06T03:06:24;6.95;;;6.15;;
16314;SDS011;8266;52.150;4.768;2023-08-06T03:08:52;6.55;;;5.95;;
16314;SDS011;8266;52.150;4.768;2023-08-06T03:11:19;6.35;;;5.75;;
16314;SDS011;8266;52.150;4.768;2023-08-06T03:13:46;5.90;;;5.35;;
16314;SDS011;8266;52.150;4.768;2023-08-06T03:16:14;6.55;;;5.93;;
16314;SDS011;8266;52.150;4.768;2023-08-06T03:18:42;7.28;;;6.57;;
16314;SDS011;8266;52.150;4.768;2023-08-06T03:21:09;5.95;;;5.43;;
16314;SDS011;8266;52.150;4.768;2023-08-06T03:23:36;6.47;;;5.82;;
16314;SDS011;8266;52.150;4.768;2023-08-06T03:26:03;6.38;;;5.88;;
16314;SDS011;8266;52.150;4.768;2023-08-06T03:28:30;7.35;;;5.45;;
16314;SDS011;8266;52.150;4.768;2023-08-06T03:31:00;6.50;;;5.95;;
16314;SDS011;8266;52.150;4.768;2023-08-06T03:33:27;7.55;;;6.03;;
16314;SDS011;8266;52.150;4.768;2023-08-06T03:35:56;6.85;;;6.10;;
16314;SDS011;8266;52.150;4.768;2023-08-06T03:38:23;6.75;;;6.18;;
16314;SDS011;8266;52.150;4.768;2023-08-06T03:40:50;6.82;;;6.18;;
16314;SDS011;8266;52.150;4.768;2023-08-06T03:43:17;7.15;;;6.05;;
16314;SDS011;8266;52.150;4.768;2023-08-06T03:45:45;6.70;;;6.00;;
16314;SDS011;8266;52.150;4.768;2023-08-06T03:48:12;6.28;;;5.50;;
16314;SDS011;8266;52.150;4.768;2023-08-06T03:50:39;2.00;;;1.90;;
16314;SDS011;8266;52.150;4.768;2023-08-06T03:53:07;1.25;;;1.02;;
16314;SDS011;8266;52.150;4.768;2023-08-06T03:55:34;1.30;;;1.20;;
16314;SDS011;8266;52.150;4.768;2023-08-06T03:58:01;1.50;;;1.30;;
16314;SDS011;8266;52.150;4.768;2023-08-06T04:00:28;4.00;;;1.17;;
16314;SDS011;8266;52.150;4.768;2023-08-06T04:02:55;1.08;;;1.00;;
16314;SDS011;8266;52.150;4.768;2023-08-06T04:05:22;1.10;;;1.00;;
16314;SDS011;8266;52.150;4.768;2023-08-06T04:07:49;1.27;;;0.90;;
16314;SDS011;8266;52.150;4.768;2023-08-06T04:10:17;2.05;;;1.35;;
16314;SDS011;8266;52.150;4.768;2023-08-06T04:12:45;1.77;;;1.30;;
16314;SDS011;8266;52.150;4.768;2023-08-06T04:15:11;1.48;;;1.10;;
16314;SDS011;8266;52.150;4.768;2023-08-06T04:17:38;1.52;;;1.17;;
16314;SDS011;8266;52.150;4.768;2023-08-06T04:20:06;1.83;;;1.23;;
16314;SDS011;8266;52.150;4.768;2023-08-06T04:22:33;1.75;;;1.27;;
16314;SDS011;8266;52.150;4.768;2023-08-06T04:25:00;1.40;;;1.30;;
16314;SDS011;8266;52.150;4.768;2023-08-06T04:27:29;1.50;;;1.40;;
16314;SDS011;8266;52.150;4.768;2023-08-06T04:29:56;2.08;;;1.60;;
16314;SDS011;8266;52.150;4.768;2023-08-06T04:32:23;2.05;;;1.27;;
16314;SDS011;8266;52.150;4.768;2023-08-06T04:34:51;2.30;;;1.52;;
16314;SDS011;8266;52.150;4.768;2023-08-06T04:37:18;2.83;;;1.80;;
16314;SDS011;8266;52.150;4.768;2023-08-06T04:39:45;2.40;;;1.80;;
16314;SDS011;8266;52.150;4.768;2023-08-06T04:42:12;2.53;;;2.13;;
16314;SDS011;8266;52.150;4.768;2023-08-06T04:44:40;3.15;;;2.10;;
16314;SDS011;8266;52.150;4.768;2023-08-06T04:47:07;3.05;;;2.00;;
16314;SDS011;8266;52.150;4.768;2023-08-06T04:49:34;3.33;;;2.13;;
16314;SDS011;8266;52.150;4.768;2023-08-06T04:52:01;3.33;;;2.40;;
16314;SDS011;8266;52.150;4.768;2023-08-06T04:54:28;4.53;;;2.00;;
16314;SDS011;8266;52.150;4.768;2023-08-06T04:56:55;3.38;;;2.17;;
16314;SDS011;8266;52.150;4.768;2023-08-06T04:59:22;2.08;;;1.80;;
16314;SDS011;8266;52.150;4.768;2023-08-06T05:01:51;2.30;;;1.98;;
16314;SDS011;8266;52.150;4.768;2023-08-06T05:04:17;1.65;;;1.55;;
16314;SDS011;8266;52.150;4.768;2023-08-06T05:06:44;1.90;;;1.48;;
16314;SDS011;8266;52.150;4.768;2023-08-06T05:09:11;1.73;;;1.52;;
16314;SDS011;8266;52.150;4.768;2023-08-06T05:11:38;1.80;;;1.60;;
16314;SDS011;8266;52.150;4.768;2023-08-06T05:14:05;1.38;;;1.23;;
16314;SDS011;8266;52.150;4.768;2023-08-06T05:16:32;1.95;;;1.60;;
16314;SDS011;8266;52.150;4.768;2023-08-06T05:19:00;1.63;;;1.52;;
16314;SDS011;8266;52.150;4.768;2023-08-06T05:21:27;1.90;;;1.40;;
16314;SDS011;8266;52.150;4.768;2023-08-06T05:23:54;1.52;;;1.42;;
16314;SDS011;8266;52.150;4.768;2023-08-06T05:26:21;2.00;;;1.50;;
16314;SDS011;8266;52.150;4.768;2023-08-06T05:28:48;1.40;;;1.27;;
16314;SDS011;8266;52.150;4.768;2023-08-06T05:31:15;1.42;;;1.30;;
16314;SDS011;8266;52.150;4.768;2023-08-06T05:33:42;1.58;;;1.38;;
16314;SDS011;8266;52.150;4.768;2023-08-06T05:36:10;1.30;;;1.20;;
16314;SDS011;8266;52.150;4.768;2023-08-06T05:38:37;1.63;;;1.40;;
16314;SDS011;8266;52.150;4.768;2023-08-06T05:41:04;1.40;;;1.30;;
16314;SDS011;8266;52.150;4.768;2023-08-06T05:43:31;1.45;;;1.35;;
16314;SDS011;8266;52.150;4.768;2023-08-06T05:45:58;2.55;;;1.38;;
16314;SDS011;8266;52.150;4.768;2023-08-06T05:48:25;5.07;;;1.55;;
16314;SDS011;8266;52.150;4.768;2023-08-06T05:50:53;2.47;;;1.67;;
16314;SDS011;8266;52.150;4.768;2023-08-06T05:53:21;1.85;;;1.40;;
16314;SDS011;8266;52.150;4.768;2023-08-06T05:55:48;2.38;;;1.80;;
16314;SDS011;8266;52.150;4.768;2023-08-06T05:58:15;2.00;;;1.80;;
16314;SDS011;8266;52.150;4.768;2023-08-06T06:00:42;2.05;;;1.73;;
16314;SDS011;8266;52.150;4.768;2023-08-06T06:03:09;2.47;;;2.00;;
16314;SDS011;8266;52.150;4.768;2023-08-06T06:05:37;2.85;;;1.98;;
16314;SDS011;8266;52.150;4.768;2023-08-06T06:08:05;2.58;;;2.00;;
16314;SDS011;8266;52.150;4.768;2023-08-06T06:10:33;2.83;;;2.15;;
16314;SDS011;8266;52.150;4.768;2023-08-06T06:13:01;2.60;;;2.10;;
16314;SDS011;8266;52.150;4.768;2023-08-06T06:15:28;2.17;;;1.95;;
16314;SDS011;8266;52.150;4.768;2023-08-06T06:17:55;3.38;;;1.80;;
16314;SDS011;8266;52.150;4.768;2023-08-06T06:20:22;5.00;;;2.03;;
16314;SDS011;8266;52.150;4.768;2023-08-06T06:22:49;2.92;;;2.22;;
16314;SDS011;8266;52.150;4.768;2023-08-06T06:25:16;3.88;;;1.90;;
16314;SDS011;8266;52.150;4.768;2023-08-06T06:27:44;2.35;;;2.00;;
16314;SDS011;8266;52.150;4.768;2023-08-06T06:30:11;4.22;;;1.80;;
16314;SDS011;8266;52.150;4.768;2023-08-06T06:32:39;2.42;;;1.80;;
16314;SDS011;8266;52.150;4.768;2023-08-06T06:35:07;2.15;;;2.00;;
16314;SDS011;8266;52.150;4.768;2023-08-06T06:37:34;3.92;;;2.13;;
16314;SDS011;8266;52.150;4.768;2023-08-06T06:40:01;2.28;;;1.92;;
16314;SDS011;8266;52.150;4.768;2023-08-06T06:42:29;2.38;;;2.10;;
16314;SDS011;8266;52.150;4.768;2023-08-06T06:44:57;2.55;;;2.30;;
16314;SDS011;8266;52.150;4.768;2023-08-06T06:47:24;3.90;;;2.65;;
16314;SDS011;8266;52.150;4.768;2023-08-06T06:49:51;4.28;;;2.60;;
16314;SDS011;8266;52.150;4.768;2023-08-06T06:52:18;5.13;;;2.50;;
16314;SDS011;8266;52.150;4.768;2023-08-06T06:54:45;2.67;;;2.03;;
16314;SDS011;8266;52.150;4.768;2023-08-06T06:57:13;3.63;;;2.60;;
16314;SDS011;8266;52.150;4.768;2023-08-06T06:59:40;3.13;;;2.45;;
16314;SDS011;8266;52.150;4.768;2023-08-06T07:02:08;3.78;;;2.75;;
16314;SDS011;8266;52.150;4.768;2023-08-06T07:04:35;3.63;;;2.08;;
16314;SDS011;8266;52.150;4.768;2023-08-06T07:07:02;4.18;;;2.45;;
16314;SDS011;8266;52.150;4.768;2023-08-06T07:09:29;3.63;;;2.58;;
16314;SDS011;8266;52.150;4.768;2023-08-06T07:11:56;4.85;;;2.45;;
16314;SDS011;8266;52.150;4.768;2023-08-06T07:14:24;4.40;;;2.30;;
16314;SDS011;8266;52.150;4.768;2023-08-06T07:16:51;3.28;;;2.10;;
16314;SDS011;8266;52.150;4.768;2023-08-06T07:19:20;3.88;;;2.60;;
16314;SDS011;8266;52.150;4.768;2023-08-06T07:21:47;2.97;;;1.90;;
16314;SDS011;8266;52.150;4.768;2023-08-06T07:24:14;3.17;;;2.42;;
16314;SDS011;8266;52.150;4.768;2023-08-06T07:26:41;2.65;;;2.30;;
16314;SDS011;8266;52.150;4.768;2023-08-06T07:29:08;4.82;;;1.67;;
16314;SDS011;8266;52.150;4.768;2023-08-06T07:31:35;2.20;;;1.90;;
16314;SDS011;8266;52.150;4.768;2023-08-06T07:34:02;2.20;;;1.90;;
16314;SDS011;8266;52.150;4.768;2023-08-06T07:36:30;2.88;;;1.60;;
16314;SDS011;8266;52.150;4.768;2023-08-06T07:38:57;1.38;;;1.27;;
16314;SDS011;8266;52.150;4.768;2023-08-06T07:41:24;2.80;;;1.55;;
16314;SDS011;8266;52.150;4.768;2023-08-06T07:43:51;1.80;;;1.15;;
16314;SDS011;8266;52.150;4.768;2023-08-06T07:46:19;1.42;;;1.05;;
16314;SDS011;8266;52.150;4.768;2023-08-06T07:48:46;3.20;;;1.10;;
16314;SDS011;8266;52.150;4.768;2023-08-06T07:51:12;2.42;;;1.00;;
16314;SDS011;8266;52.150;4.768;2023-08-06T07:53:41;2.72;;;1.15;;
16314;SDS011;8266;52.150;4.768;2023-08-06T07:56:08;1.80;;;1.05;;
16314;SDS011;8266;52.150;4.768;2023-08-06T07:58:35;1.75;;;1.00;;
16314;SDS011;8266;52.150;4.768;2023-08-06T08:01:02;4.13;;;1.17;;
16314;SDS011;8266;52.150;4.768;2023-08-06T08:03:29;1.92;;;1.08;;
16314;SDS011;8266;52.150;4.768;2023-08-06T08:05:56;1.92;;;1.20;;
16314;SDS011;8266;52.150;4.768;2023-08-06T08:08:23;2.13;;;0.90;;
16314;SDS011;8266;52.150;4.768;2023-08-06T08:10:52;1.65;;;1.00;;
16314;SDS011;8266;52.150;4.768;2023-08-06T08:13:20;2.08;;;1.00;;
16314;SDS011;8266;52.150;4.768;2023-08-06T08:15:47;2.85;;;1.30;;
16314;SDS011;8266;52.150;4.768;2023-08-06T08:18:14;1.42;;;0.80;;
16314;SDS011;8266;52.150;4.768;2023-08-06T08:20:41;3.25;;;1.48;;
16314;SDS011;8266;52.150;4.768;2023-08-06T08:23:08;2.20;;;1.10;;
16314;SDS011;8266;52.150;4.768;2023-08-06T08:25:35;3.55;;;1.30;;
16314;SDS011;8266;52.150;4.768;2023-08-06T08:28:03;2.45;;;1.40;;
16314;SDS011;8266;52.150;4.768;2023-08-06T08:30:30;3.13;;;1.13;;
16314;SDS011;8266;52.150;4.768;2023-08-06T08:32:57;1.60;;;1.10;;
16314;SDS011;8266;52.150;4.768;2023-08-06T08:35:24;2.45;;;1.20;;
16314;SDS011;8266;52.150;4.768;2023-08-06T08:37:51;2.30;;;1.02;;
16314;SDS011;8266;52.150;4.768;2023-08-06T08:40:19;2.00;;;1.15;;
16314;SDS011;8266;52.150;4.768;2023-08-06T08:42:49;2.00;;;1.10;;
16314;SDS011;8266;52.150;4.768;2023-08-06T08:45:18;1.23;;;0.90;;
16314;SDS011;8266;52.150;4.768;2023-08-06T08:47:48;4.10;;;0.82;;
16314;SDS011;8266;52.150;4.768;2023-08-06T08:50:15;2.10;;;1.15;;
16314;SDS011;8266;52.150;4.768;2023-08-06T08:52:44;0.95;;;0.70;;
16314;SDS011;8266;52.150;4.768;2023-08-06T08:55:14;2.75;;;0.60;;
16314;SDS011;8266;52.150;4.768;2023-08-06T08:57:41;2.35;;;0.85;;
16314;SDS011;8266;52.150;4.768;2023-08-06T09:00:09;1.80;;;0.70;;
16314;SDS011;8266;52.150;4.768;2023-08-06T09:02:38;17.95;;;1.30;;
16314;SDS011;8266;52.150;4.768;2023-08-06T09:05:06;1.98;;;0.60;;
16314;SDS011;8266;52.150;4.768;2023-08-06T09:07:35;1.98;;;0.60;;
16314;SDS011;8266;52.150;4.768;2023-08-06T09:10:07;0.82;;;0.40;;
16314;SDS011;8266;52.150;4.768;2023-08-06T09:12:38;1.08;;;0.60;;
16314;SDS011;8266;52.150;4.768;2023-08-06T09:15:06;0.90;;;0.70;;
16314;SDS011;8266;52.150;4.768;2023-08-06T09:17:33;1.13;;;0.60;;
16314;SDS011;8266;52.150;4.768;2023-08-06T09:20:09;2.00;;;0.80;;
16314;SDS011;8266;52.150;4.768;2023-08-06T09:22:37;0.77;;;0.60;;
16314;SDS011;8266;52.150;4.768;2023-08-06T09:25:05;2.25;;;0.60;;
16314;SDS011;8266;52.150;4.768;2023-08-06T09:27:35;1.23;;;0.90;;
16314;SDS011;8266;52.150;4.768;2023-08-06T09:30:03;2.40;;;0.85;;
16314;SDS011;8266;52.150;4.768;2023-08-06T09:32:41;3.17;;;0.80;;
16314;SDS011;8266;52.150;4.768;2023-08-06T09:35:16;2.58;;;0.85;;
16314;SDS011;8266;52.150;4.768;2023-08-06T09:37:43;1.92;;;0.80;;
16314;SDS011;8266;52.150;4.768;2023-08-06T09:40:24;0.93;;;0.70;;
16314;SDS011;8266;52.150;4.768;2023-08-06T09:42:51;3.00;;;0.85;;
16314;SDS011;8266;52.150;4.768;2023-08-06T09:45:18;1.10;;;0.90;;
16314;SDS011;8266;52.150;4.768;2023-08-06T09:47:47;2.22;;;0.90;;
16314;SDS011;8266;52.150;4.768;2023-08-06T09:50:19;1.50;;;0.73;;
16314;SDS011;8266;52.150;4.768;2023-08-06T09:52:46;2.35;;;0.95;;
16314;SDS011;8266;52.150;4.768;2023-08-06T09:55:14;1.88;;;0.90;;
16314;SDS011;8266;52.150;4.768;2023-08-06T09:57:41;1.00;;;0.82;;
16314;SDS011;8266;52.150;4.768;2023-08-06T10:00:09;1.63;;;0.95;;
16314;SDS011;8266;52.150;4.768;2023-08-06T10:02:39;2.47;;;1.15;;
16314;SDS011;8266;52.150;4.768;2023-08-06T10:05:07;2.53;;;0.98;;
16314;SDS011;8266;52.150;4.768;2023-08-06T10:07:36;1.20;;;0.85;;
16314;SDS011;8266;52.150;4.768;2023-08-06T10:10:04;1.40;;;0.90;;
16314;SDS011;8266;52.150;4.768;2023-08-06T10:12:32;2.35;;;0.93;;
16314;SDS011;8266;52.150;4.768;2023-08-06T10:15:01;2.72;;;1.20;;
16314;SDS011;8266;52.150;4.768;2023-08-06T10:17:33;1.10;;;0.82;;
16314;SDS011;8266;52.150;4.768;2023-08-06T10:20:02;2.30;;;1.25;;
16314;SDS011;8266;52.150;4.768;2023-08-06T10:22:32;2.13;;;1.10;;
16314;SDS011;8266;52.150;4.768;2023-08-06T10:25:01;3.03;;;1.33;;
16314;SDS011;8266;52.150;4.768;2023-08-06T10:27:31;1.23;;;1.13;;
16314;SDS011;8266;52.150;4.768;2023-08-06T10:32:49;1.48;;;1.00;;
16314;SDS011;8266;52.150;4.768;2023-08-06T10:35:30;1.33;;;1.20;;
16314;SDS011;8266;52.150;4.768;2023-08-06T10:38:04;1.88;;;1.30;;
16314;SDS011;8266;52.150;4.768;2023-08-06T10:40:33;4.25;;;1.75;;
16314;SDS011;8266;52.150;4.768;2023-08-06T10:43:00;1.98;;;1.20;;
16314;SDS011;8266;52.150;4.768;2023-08-06T10:45:27;1.48;;;1.02;;
16314;SDS011;8266;52.150;4.768;2023-08-06T10:47:55;2.92;;;1.38;;
16314;SDS011;8266;52.150;4.768;2023-08-06T10:50:23;1.10;;;1.02;;
16314;SDS011;8266;52.150;4.768;2023-08-06T10:52:51;2.25;;;0.95;;
16314;SDS011;8266;52.150;4.768;2023-08-06T10:55:22;1.88;;;1.00;;
16314;SDS011;8266;52.150;4.768;2023-08-06T10:57:50;6.68;;;1.20;;
16314;SDS011;8266;52.150;4.768;2023-08-06T11:00:17;2.05;;;1.20;;
16314;SDS011;8266;52.150;4.768;2023-08-06T11:02:44;2.10;;;1.40;;
16314;SDS011;8266;52.150;4.768;2023-08-06T11:05:14;1.98;;;1.30;;
16314;SDS011;8266;52.150;4.768;2023-08-06T11:07:41;1.95;;;1.00;;
16314;SDS011;8266;52.150;4.768;2023-08-06T11:10:09;1.10;;;0.80;;
16314;SDS011;8266;52.150;4.768;2023-08-06T11:12:37;1.45;;;0.80;;
16314;SDS011;8266;52.150;4.768;2023-08-06T11:15:06;2.85;;;1.00;;
16314;SDS011;8266;52.150;4.768;2023-08-06T11:17:34;1.90;;;0.77;;
16314;SDS011;8266;52.150;4.768;2023-08-06T11:20:02;1.15;;;0.88;;
16314;SDS011;8266;52.150;4.768;2023-08-06T11:22:30;0.90;;;0.60;;
16314;SDS011;8266;52.150;4.768;2023-08-06T11:24:57;1.35;;;0.77;;
16314;SDS011;8266;52.150;4.768;2023-08-06T11:27:26;4.30;;;1.02;;
16314;SDS011;8266;52.150;4.768;2023-08-06T11:29:53;2.20;;;0.88;;
16314;SDS011;8266;52.150;4.768;2023-08-06T11:32:22;2.08;;;0.88;;
16314;SDS011;8266;52.150;4.768;2023-08-06T11:34:49;1.08;;;0.50;;
16314;SDS011;8266;52.150;4.768;2023-08-06T11:37:16;1.15;;;0.60;;
16314;SDS011;8266;52.150;4.768;2023-08-06T11:39:48;1.05;;;0.73;;
16314;SDS011;8266;52.150;4.768;2023-08-06T11:42:16;1.45;;;0.60;;
16314;SDS011;8266;52.150;4.768;2023-08-06T11:44:43;0.60;;;0.60;;
16314;SDS011;8266;52.150;4.768;2023-08-06T11:47:12;1.85;;;0.80;;
16314;SDS011;8266;52.150;4.768;2023-08-06T11:49:42;1.25;;;0.65;;
16314;SDS011;8266;52.150;4.768;2023-08-06T11:52:13;2.42;;;0.68;;
16314;SDS011;8266;52.150;4.768;2023-08-06T11:54:42;1.25;;;0.60;;
16314;SDS011;8266;52.150;4.768;2023-08-06T11:57:10;0.82;;;0.70;;
16314;SDS011;8266;52.150;4.768;2023-08-06T11:59:38;1.95;;;0.77;;
16314;SDS011;8266;52.150;4.768;2023-08-06T12:02:07;0.73;;;0.52;;
16314;SDS011;8266;52.150;4.768;2023-08-06T12:07:30;1.48;;;0.70;;
16314;SDS011;8266;52.150;4.768;2023-08-06T12:09:58;1.83;;;0.70;;
16314;SDS011;8266;52.150;4.768;2023-08-06T12:12:26;0.73;;;0.43;;
16314;SDS011;8266;52.150;4.768;2023-08-06T12:14:53;0.98;;;0.60;;
16314;SDS011;8266;52.150;4.768;2023-08-06T12:17:21;1.10;;;0.52;;
16314;SDS011;8266;52.150;4.768;2023-08-06T12:19:48;1.95;;;0.52;;
16314;SDS011;8266;52.150;4.768;2023-08-06T12:22:16;0.95;;;0.60;;
16314;SDS011;8266;52.150;4.768;2023-08-06T12:24:43;1.88;;;0.60;;
16314;SDS011;8266;52.150;4.768;2023-08-06T12:27:13;0.82;;;0.40;;
16314;SDS011;8266;52.150;4.768;2023-08-06T12:29:41;0.60;;;0.40;;
16314;SDS011;8266;52.150;4.768;2023-08-06T12:32:09;1.25;;;0.63;;
16314;SDS011;8266;52.150;4.768;2023-08-06T12:34:37;1.17;;;0.55;;
16314;SDS011;8266;52.150;4.768;2023-08-06T12:37:04;1.23;;;0.70;;
16314;SDS011;8266;52.150;4.768;2023-08-06T12:39:33;1.27;;;0.70;;
16314;SDS011;8266;52.150;4.768;2023-08-06T12:42:01;2.45;;;1.13;;
16314;SDS011;8266;52.150;4.768;2023-08-06T12:44:28;1.38;;;0.75;;
16314;SDS011;8266;52.150;4.768;2023-08-06T12:46:56;0.52;;;0.52;;
16314;SDS011;8266;52.150;4.768;2023-08-06T12:49:23;1.73;;;0.93;;
16314;SDS011;8266;52.150;4.768;2023-08-06T12:51:51;0.70;;;0.60;;
16314;SDS011;8266;52.150;4.768;2023-08-06T12:54:19;0.88;;;0.60;;
16314;SDS011;8266;52.150;4.768;2023-08-06T12:56:48;1.45;;;0.70;;
16314;SDS011;8266;52.150;4.768;2023-08-06T12:59:15;2.05;;;0.50;;
16314;SDS011;8266;52.150;4.768;2023-08-06T13:01:43;0.80;;;0.60;;
16314;SDS011;8266;52.150;4.768;2023-08-06T13:04:11;1.92;;;0.68;;
16314;SDS011;8266;52.150;4.768;2023-08-06T13:06:38;0.80;;;0.80;;
16314;SDS011;8266;52.150;4.768;2023-08-06T13:09:05;1.20;;;0.52;;
16314;SDS011;8266;52.150;4.768;2023-08-06T13:11:33;0.98;;;0.57;;
16314;SDS011;8266;52.150;4.768;2023-08-06T13:14:05;0.40;;;0.40;;
16314;SDS011;8266;52.150;4.768;2023-08-06T13:16:33;1.35;;;0.52;;
16314;SDS011;8266;52.150;4.768;2023-08-06T13:19:01;2.00;;;0.60;;
16314;SDS011;8266;52.150;4.768;2023-08-06T13:21:30;0.50;;;0.43;;
16314;SDS011;8266;52.150;4.768;2023-08-06T13:23:58;3.97;;;1.08;;
16314;SDS011;8266;52.150;4.768;2023-08-06T13:26:26;1.55;;;0.40;;
16314;SDS011;8266;52.150;4.768;2023-08-06T13:28:53;0.40;;;0.38;;
16314;SDS011;8266;52.150;4.768;2023-08-06T13:31:22;0.75;;;0.38;;
16314;SDS011;8266;52.150;4.768;2023-08-06T13:33:49;0.73;;;0.52;;
16314;SDS011;8266;52.150;4.768;2023-08-06T13:36:16;1.40;;;0.55;;
16314;SDS011;8266;52.150;4.768;2023-08-06T13:38:43;0.95;;;0.60;;
16314;SDS011;8266;52.150;4.768;2023-08-06T13:41:10;0.93;;;0.50;;
16314;SDS011;8266;52.150;4.768;2023-08-06T13:43:37;1.60;;;0.40;;
16314;SDS011;8266;52.150;4.768;2023-08-06T13:46:05;1.10;;;0.60;;
16314;SDS011;8266;52.150;4.768;2023-08-06T13:48:33;1.60;;;0.70;;
16314;SDS011;8266;52.150;4.768;2023-08-06T13:51:00;1.17;;;0.55;;
16314;SDS011;8266;52.150;4.768;2023-08-06T13:53:27;2.20;;;1.10;;
16314;SDS011;8266;52.150;4.768;2023-08-06T13:55:55;1.23;;;0.43;;
16314;SDS011;8266;52.150;4.768;2023-08-06T13:58:22;1.85;;;0.65;;
16314;SDS011;8266;52.150;4.768;2023-08-06T14:00:51;3.03;;;0.80;;
16314;SDS011;8266;52.150;4.768;2023-08-06T14:03:19;5.65;;;0.77;;
16314;SDS011;8266;52.150;4.768;2023-08-06T14:05:48;1.80;;;0.57;;
16314;SDS011;8266;52.150;4.768;2023-08-06T14:08:15;2.53;;;0.50;;
16314;SDS011;8266;52.150;4.768;2023-08-06T14:10:43;4.03;;;0.80;;
16314;SDS011;8266;52.150;4.768;2023-08-06T14:13:10;5.07;;;0.90;;
16314;SDS011;8266;52.150;4.768;2023-08-06T14:15:37;3.22;;;0.80;;
16314;SDS011;8266;52.150;4.768;2023-08-06T14:18:05;2.20;;;0.85;;
16314;SDS011;8266;52.150;4.768;2023-08-06T14:20:33;3.70;;;0.70;;
16314;SDS011;8266;52.150;4.768;2023-08-06T14:23:02;3.50;;;0.55;;
16314;SDS011;8266;52.150;4.768;2023-08-06T14:25:29;2.90;;;0.63;;
16314;SDS011;8266;52.150;4.768;2023-08-06T14:27:56;3.13;;;1.00;;
16314;SDS011;8266;52.150;4.768;2023-08-06T14:30:23;3.92;;;1.17;;
16314;SDS011;8266;52.150;4.768;2023-08-06T14:32:50;2.83;;;0.55;;
16314;SDS011;8266;52.150;4.768;2023-08-06T14:35:17;2.90;;;0.88;;
16314;SDS011;8266;52.150;4.768;2023-08-06T14:37:44;4.65;;;0.95;;
16314;SDS011;8266;52.150;4.768;2023-08-06T14:40:13;3.88;;;0.75;;
16314;SDS011;8266;52.150;4.768;2023-08-06T14:42:40;6.95;;;1.40;;
16314;SDS011;8266;52.150;4.768;2023-08-06T14:45:07;3.95;;;0.60;;
16314;SDS011;8266;52.150;4.768;2023-08-06T14:47:34;4.30;;;1.20;;
16314;SDS011;8266;52.150;4.768;2023-08-06T14:50:01;2.70;;;0.70;;
16314;SDS011;8266;52.150;4.768;2023-08-06T14:52:29;6.22;;;1.00;;
16314;SDS011;8266;52.150;4.768;2023-08-06T14:54:56;2.72;;;0.63;;
16314;SDS011;8266;52.150;4.768;2023-08-06T14:57:25;3.63;;;0.90;;
16314;SDS011;8266;52.150;4.768;2023-08-06T14:59:53;7.75;;;1.58;;
16314;SDS011;8266;52.150;4.768;2023-08-06T15:02:19;3.40;;;0.73;;
16314;SDS011;8266;52.150;4.768;2023-08-06T15:04:46;4.60;;;1.30;;
16314;SDS011;8266;52.150;4.768;2023-08-06T15:07:15;1.88;;;0.73;;
16314;SDS011;8266;52.150;4.768;2023-08-06T15:09:42;4.93;;;1.20;;